Hobart, OK

12:35 AM CDT on March 29, 2017 (GMT -0500)
Hobart, OK | | Change Station

Elev 1273 ft 35.03 °N, 99.10 °W | Updated 1 minute ago

Rain
Rain
51.0 °F
Feels Like 51.0 °F
N
3.0
Wind Variable Wind from ENE

Today
High -- | Low -- °F
--% Chance of Precip.
Yesterday
High -- | Low -- °F
Precip. -- in
Pressure 29.73 in
Visibility 6.0 miles
Clouds Mostly Cloudy 7000 ft
Overcast 8500 ft
Dew Point 47 °F
Humidity 88%
Rainfall 0.11 in
Snow Depth Not available.
7:26 AM 7:55 PM
New Moon, 2% visible
METAR KHBR 290453Z AUTO 06013G21KT 6SM -RA BR BKN070 OVC085 12/10 A2974 RMK AO2 PK WND 04026/0356 SLP066 P0016 T01170100 TSNO
Pressure 29.73 in
Visibility 6.0 miles
Clouds Mostly Cloudy 7000 ft
Overcast 8500 ft
Dew Point 47 °F
Humidity 88%
Rainfall 0.11 in
Snow Depth Not available.
7:26 AM 7:55 PM
New Moon, 2% visible
METAR KHBR 290453Z AUTO 06013G21KT 6SM -RA BR BKN070 OVC085 12/10 A2974 RMK AO2 PK WND 04026/0356 SLP066 P0016 T01170100 TSNO

Get Severe Weather Alerts

Thanks for signing up!

Be on the lookout for a verification email in your inbox.

You'll start receiving the daily forecast at 8 AM.

×

10-Day Weather Forecast

Almanac

Astronomy

Mar. 29, 2017 Rise Set
Actual Time
Civil Twilight
Nautical Twilight
Astronomical Twilight
Moon
Length of Visible Light
Length of Day
Tomorrow will be .
, % of the Moon is Illuminated

Today's Extremes

State Highs State Lows

Community

WunderPhotos

Upload Photos

1,962,540 photos uploaded!

WunderBlog® & News

Nearby

Air Quality

  Air Quality AQ Index Pollutant
Not available.

Snow Depth

Station Depth Elevation

Earthquake Activity

City Distance Mag. Time & Date
Minimum magnitude displayed is 2.5.

Earthquake Activity

City Distance Mag. Time & Date
Minimum magnitude displayed is 2.5.

Coastal Water Temperatures

Place Temperature

Stations

Nearby Weather Stations

Station Location Temp. Windchill Dew Point Humidity Wind Precip. Elev Updated Type
                   

Watches & Warnings

There are currently no watches in effect.